createdAt,value
2022-09-02T00:02:29.504Z,48.70
2022-09-02T00:04:57.109Z,48.70
2022-09-02T00:07:25.909Z,48.70
2022-09-02T00:09:55.370Z,48.50
2022-09-02T00:12:22.392Z,48.60
2022-09-02T00:14:52.669Z,48.50
2022-09-02T00:17:19.570Z,48.50
2022-09-02T00:19:46.434Z,48.50
2022-09-02T00:22:14.003Z,48.50
2022-09-02T00:24:40.895Z,48.50
2022-09-02T00:27:09.009Z,48.70
2022-09-02T00:29:35.873Z,48.60
2022-09-02T00:32:03.024Z,48.60
2022-09-02T00:34:32.978Z,48.50
2022-09-02T00:37:00.988Z,48.40
2022-09-02T00:39:27.711Z,48.50
2022-09-02T00:41:54.745Z,48.50
2022-09-02T00:44:26.300Z,48.60
2022-09-02T00:46:54.507Z,48.50
2022-09-02T00:49:30.222Z,48.40
2022-09-02T00:52:29.574Z,48.40
2022-09-02T00:55:21.222Z,48.60
2022-09-02T00:57:57.583Z,48.40
2022-09-02T01:00:34.683Z,48.50
2022-09-02T01:03:06.602Z,48.40
2022-09-02T01:05:38.630Z,48.40
2022-09-02T01:08:09.754Z,48.40
2022-09-02T01:10:37.716Z,48.20
2022-09-02T01:13:10.038Z,48.30
2022-09-02T01:15:44.405Z,48.40
2022-09-02T01:18:17.054Z,48.30
2022-09-02T01:20:44.815Z,48.30
2022-09-02T01:23:16.380Z,48.30
2022-09-02T01:25:46.591Z,48.40
2022-09-02T01:28:20.554Z,48.40
2022-09-02T01:30:51.206Z,48.30
2022-09-02T01:33:20.933Z,48.30
2022-09-02T01:35:50.028Z,48.40
2022-09-02T01:38:17.692Z,48.40
2022-09-02T01:40:45.173Z,48.40
2022-09-02T01:43:24.998Z,48.40
2022-09-02T01:45:55.477Z,48.50
2022-09-02T01:48:22.509Z,48.50
2022-09-02T01:50:56.791Z,48.60
2022-09-02T01:53:25.019Z,48.60
2022-09-02T01:55:52.333Z,48.70
2022-09-02T01:58:20.950Z,48.70
2022-09-02T02:00:49.330Z,48.70
2022-09-02T02:03:17.138Z,48.80
2022-09-02T02:05:46.249Z,48.70
2022-09-02T02:08:13.418Z,48.80
2022-09-02T02:10:43.115Z,48.80
2022-09-02T02:13:10.783Z,48.80
2022-09-02T02:15:40.229Z,48.80
2022-09-02T02:18:08.261Z,48.80
2022-09-02T02:20:37.614Z,48.70
2022-09-02T02:23:05.845Z,48.70
2022-09-02T02:25:32.821Z,48.70
2022-09-02T02:28:02.508Z,48.70
2022-09-02T02:30:32.619Z,48.80
2022-09-02T02:32:59.691Z,48.80
2022-09-02T02:35:36.153Z,48.70
2022-09-02T02:38:04.288Z,48.90
2022-09-02T02:40:32.814Z,49.00
2022-09-02T02:42:59.780Z,48.90
2022-09-02T02:45:29.077Z,48.80
2022-09-02T02:47:55.938Z,48.80
2022-09-02T02:50:25.937Z,49.00
2022-09-02T02:53:03.386Z,49.00
2022-09-02T02:55:30.668Z,49.10
2022-09-02T02:57:59.645Z,49.10
2022-09-02T03:00:32.308Z,49.20
2022-09-02T03:03:03.454Z,49.30
2022-09-02T03:05:31.576Z,49.20
2022-09-02T03:07:58.610Z,49.30
2022-09-02T03:10:28.538Z,49.20
2022-09-02T03:12:55.807Z,49.20
2022-09-02T03:15:23.014Z,49.20
2022-09-02T03:17:52.234Z,49.30
2022-09-02T03:20:21.440Z,49.30
2022-09-02T03:22:52.992Z,49.30
2022-09-02T03:25:21.301Z,49.30
2022-09-02T03:27:49.174Z,49.20
2022-09-02T03:30:21.776Z,49.30
2022-09-02T03:32:52.886Z,49.30
2022-09-02T03:35:23.276Z,49.30
2022-09-02T03:37:52.194Z,49.30
2022-09-02T03:40:23.476Z,49.40
2022-09-02T03:42:51.140Z,49.50
2022-09-02T03:45:18.318Z,49.50
2022-09-02T03:47:51.192Z,49.60
2022-09-02T03:50:19.490Z,49.70
2022-09-02T03:52:46.325Z,49.80
2022-09-02T03:55:24.220Z,49.90
2022-09-02T03:57:52.006Z,50.10
2022-09-02T04:00:28.203Z,50.10
2022-09-02T04:02:56.118Z,50.20
2022-09-02T04:05:24.137Z,50.30
2022-09-02T04:07:53.517Z,50.30
2022-09-02T04:10:23.068Z,50.40
2022-09-02T04:12:51.408Z,51.00
2022-09-02T04:15:19.949Z,50.60
2022-09-02T04:17:46.830Z,50.70
2022-09-02T04:20:14.753Z,51.30
2022-09-02T04:22:41.920Z,50.80
2022-09-02T04:25:14.226Z,51.00
2022-09-02T04:27:41.435Z,50.90
2022-09-02T04:30:09.710Z,50.90
2022-09-02T04:32:40.619Z,50.90
2022-09-02T04:35:09.156Z,50.70
2022-09-02T04:37:38.827Z,50.60
2022-09-02T04:40:08.900Z,51.00
2022-09-02T04:42:35.918Z,51.10
2022-09-02T04:45:07.769Z,51.30
2022-09-02T04:47:37.016Z,51.20
2022-09-02T04:50:07.764Z,51.20
2022-09-02T04:52:34.741Z,51.40
2022-09-02T04:55:04.681Z,51.40
2022-09-02T04:57:33.953Z,51.50
2022-09-02T05:00:04.955Z,51.50
2022-09-02T05:02:34.257Z,51.70
2022-09-02T05:05:04.203Z,51.60
2022-09-02T05:07:31.665Z,51.60
2022-09-02T05:10:00.842Z,51.80
2022-09-02T05:12:28.250Z,51.80
2022-09-02T05:14:57.189Z,51.90
2022-09-02T05:17:25.124Z,52.00
2022-09-02T05:19:52.027Z,51.90
2022-09-02T05:22:22.106Z,51.90
2022-09-02T05:25:05.571Z,52.00
2022-09-02T05:27:33.609Z,52.20
2022-09-02T05:30:06.094Z,52.20
2022-09-02T05:32:37.563Z,52.40
2022-09-02T05:35:07.731Z,52.40
2022-09-02T05:37:37.123Z,52.40
2022-09-02T05:40:08.080Z,52.30
2022-09-02T05:42:35.634Z,52.40
2022-09-02T05:45:05.049Z,52.50
2022-09-02T05:47:33.568Z,52.60
2022-09-02T05:50:01.679Z,52.60
2022-09-02T05:52:31.271Z,52.70
2022-09-02T05:54:58.133Z,52.80
2022-09-02T05:57:27.676Z,52.90
2022-09-02T05:59:56.896Z,52.90
2022-09-02T06:02:26.600Z,53.10
2022-09-02T06:04:56.504Z,54.30
